SBKG/CPV METAR and TAF weather

Enter ICAO airport designator
Station Type Date Time Source
SBKG METAR 2021/07/30 05:00 UTC NOAA

SBKG 300500Z 11003KT 9999 BKN010 20/19 Q1017


Station Type Date Time Source
SBKG Decoded METAR 2021/07/30 05:00 UTC NOAA

Campina Grande, Brazil (SBKG) 07-13S 035-53W
Jul 30, 2021 - 01:00 AM EDT / 2021.07.30 0500 UTC
Wind: from the ESE (110 degrees) at 3 MPH (3 KT):0
Visibility: greater than 7 mile(s):0
Sky conditions: mostly cloudy
Temperature: 68 F (20 C)
Dew Point: 66 F (19 C)
Relative Humidity: 93%
Pressure (altimeter): 30.03 in. Hg (1017 hPa)
ob: SBKG 300500Z 11003KT 9999 BKN010 20/19 Q1017
cycle: 5

Station Type Date Time Source
SBKG TAF 2021/07/30 06:27 UTC NOAA

TAF SBKG 300230Z 3006/3018 12010KT 8000 BKN012 TN20/3010Z TX29/3018Z
TEMPO 3006/3010 5000 RA BR BKN007
BECMG 3010/3012 9999 SCT020
BECMG 3016/3018 12015KT BKN025
RMK PGS

Example: see airport list